createdAt,value
2018-01-24T00:02:26.720Z,80.00
2018-01-24T00:04:54.620Z,79.70
2018-01-24T00:07:22.600Z,78.90
2018-01-24T00:09:50.682Z,78.40
2018-01-24T00:12:18.580Z,78.20
2018-01-24T00:14:46.560Z,78.10
2018-01-24T00:17:14.921Z,78.70
2018-01-24T00:19:42.824Z,78.50
2018-01-24T00:22:15.462Z,78.20
2018-01-24T00:24:43.578Z,78.40
2018-01-24T00:27:11.380Z,78.30
2018-01-24T00:29:39.998Z,78.30
2018-01-24T00:32:08.319Z,78.10
2018-01-24T00:34:36.319Z,78.10
2018-01-24T00:37:04.339Z,77.90
2018-01-24T00:39:32.218Z,78.10
2018-01-24T00:42:00.079Z,79.40
2018-01-24T00:44:27.939Z,79.80
2018-01-24T00:46:58.362Z,79.90
2018-01-24T00:49:26.239Z,80.50
2018-01-24T00:51:54.598Z,81.30
2018-01-24T00:54:22.938Z,81.60
2018-01-24T00:56:51.359Z,81.40
2018-01-24T00:59:19.198Z,80.90
2018-01-24T01:01:47.582Z,80.60
2018-01-24T01:04:16.661Z,79.90
2018-01-24T01:06:44.581Z,79.90
2018-01-24T01:09:12.400Z,79.60
2018-01-24T01:11:40.981Z,80.00
2018-01-24T01:14:11.521Z,80.00
2018-01-24T01:16:40.700Z,80.30
2018-01-24T01:19:08.540Z,79.70
2018-01-24T01:21:36.380Z,79.60
2018-01-24T01:24:04.300Z,79.30
2018-01-24T01:26:32.301Z,78.80
2018-01-24T01:29:00.222Z,79.70
2018-01-24T01:31:28.000Z,81.00
2018-01-24T01:33:56.026Z,81.10
2018-01-24T01:36:23.800Z,80.20
2018-01-24T01:38:51.980Z,80.40
2018-01-24T01:41:19.862Z,80.30
2018-01-24T01:43:47.642Z,79.80
2018-01-24T01:46:15.722Z,81.40
2018-01-24T01:48:43.561Z,80.80
2018-01-24T01:51:11.440Z,78.80
2018-01-24T01:53:39.362Z,77.80
2018-01-24T01:56:07.500Z,79.20
2018-01-24T01:58:35.380Z,81.50
2018-01-24T02:01:03.420Z,80.70
2018-01-24T02:03:31.281Z,79.80
2018-01-24T02:05:59.464Z,81.10
2018-01-24T02:08:27.260Z,82.60
2018-01-24T02:10:55.918Z,82.50
2018-01-24T02:13:23.718Z,82.50
2018-01-24T02:15:51.618Z,85.00
2018-01-24T02:18:19.478Z,85.60
2018-01-24T02:20:47.699Z,85.40
2018-01-24T02:23:15.498Z,84.70
2018-01-24T02:25:43.458Z,82.80
2018-01-24T02:28:11.372Z,82.20
2018-01-24T02:30:39.220Z,81.20
2018-01-24T02:33:07.058Z,81.60
2018-01-24T02:35:35.100Z,76.70
2018-01-24T02:38:03.780Z,80.20
2018-01-24T02:40:31.700Z,80.20
2018-01-24T02:42:59.539Z,83.60
2018-01-24T02:45:27.419Z,85.10
2018-01-24T02:47:55.359Z,84.80
2018-01-24T02:50:23.198Z,84.80
2018-01-24T02:52:51.259Z,85.80
2018-01-24T02:55:19.503Z,82.90
2018-01-24T02:57:47.379Z,81.10
2018-01-24T03:00:15.186Z,80.60
2018-01-24T03:02:43.139Z,81.20
2018-01-24T03:05:11.779Z,81.60
2018-01-24T03:07:39.618Z,81.60
2018-01-24T03:10:07.459Z,82.70
2018-01-24T03:12:35.538Z,84.50
2018-01-24T03:15:03.418Z,82.40
2018-01-24T03:17:31.358Z,82.30
2018-01-24T03:19:59.698Z,84.90
2018-01-24T03:22:27.679Z,86.60
2018-01-24T03:24:55.738Z,86.90
2018-01-24T03:27:23.698Z,87.40
2018-01-24T03:29:51.641Z,87.10
2018-01-24T03:32:19.498Z,86.70
2018-01-24T03:34:47.461Z,84.60
2018-01-24T03:37:15.339Z,80.60
2018-01-24T03:39:43.498Z,80.90
2018-01-24T03:42:11.578Z,83.90
2018-01-24T03:44:39.918Z,83.40
2018-01-24T03:47:07.898Z,78.40
2018-01-24T03:49:35.758Z,78.80
2018-01-24T03:52:03.678Z,84.20
2018-01-24T03:54:31.940Z,85.90
2018-01-24T03:57:00.021Z,80.80
2018-01-24T03:59:28.658Z,81.40
2018-01-24T04:01:56.818Z,81.20
2018-01-24T04:04:24.907Z,80.40
2018-01-24T04:06:52.818Z,81.70
2018-01-24T04:09:21.425Z,81.00
2018-01-24T04:11:49.418Z,81.00
2018-01-24T04:14:17.338Z,82.00
2018-01-24T04:16:45.319Z,83.40
2018-01-24T04:19:13.839Z,83.70
2018-01-24T04:21:41.678Z,83.70
2018-01-24T04:24:09.599Z,83.90
2018-01-24T04:26:37.419Z,77.30
2018-01-24T04:29:05.320Z,78.80
2018-01-24T04:31:33.238Z,79.70
2018-01-24T04:34:01.339Z,81.30
2018-01-24T04:36:29.178Z,83.70
2018-01-24T04:38:57.618Z,83.00
2018-01-24T04:41:25.541Z,84.00
2018-01-24T04:43:55.221Z,81.80
2018-01-24T04:46:23.060Z,81.70
2018-01-24T04:48:50.938Z,84.40
2018-01-24T04:51:20.480Z,83.50
2018-01-24T04:53:48.460Z,81.90
2018-01-24T04:56:16.479Z,81.80
2018-01-24T04:58:44.401Z,81.40
2018-01-24T05:01:12.321Z,82.50
2018-01-24T05:03:41.661Z,82.00
2018-01-24T05:06:09.720Z,81.10
2018-01-24T05:08:37.601Z,82.10
2018-01-24T05:11:05.481Z,85.70
2018-01-24T05:13:33.340Z,86.50
2018-01-24T05:16:01.220Z,87.50
2018-01-24T05:18:30.121Z,87.90
2018-01-24T05:20:57.900Z,87.90
2018-01-24T05:23:25.821Z,87.80
2018-01-24T05:25:53.742Z,87.50
2018-01-24T05:28:21.762Z,87.10
2018-01-24T05:30:50.261Z,86.60
2018-01-24T05:33:18.141Z,86.60
2018-01-24T05:35:46.301Z,86.40
2018-01-24T05:38:14.149Z,86.70
2018-01-24T05:40:43.260Z,87.00
2018-01-24T05:43:11.381Z,87.00
2018-01-24T05:45:39.201Z,87.00
2018-01-24T05:48:07.100Z,87.10
2018-01-24T05:50:36.000Z,87.50
2018-01-24T05:53:03.840Z,87.50
2018-01-24T05:55:33.402Z,87.10
2018-01-24T05:58:01.265Z,86.80
2018-01-24T06:00:28.991Z,86.50
2018-01-24T06:02:57.023Z,86.80
2018-01-24T06:05:24.863Z,87.30
2018-01-24T06:07:52.701Z,88.10
2018-01-24T06:10:20.881Z,88.00
2018-01-24T06:12:49.561Z,87.10
2018-01-24T06:15:17.440Z,87.00
2018-01-24T06:17:45.421Z,86.90
2018-01-24T06:20:13.762Z,86.60
2018-01-24T06:22:41.661Z,86.00
2018-01-24T06:25:09.563Z,85.30
2018-01-24T06:27:37.404Z,85.20
2018-01-24T06:30:05.261Z,85.90
2018-01-24T06:32:33.341Z,86.10
2018-01-24T06:35:01.420Z,86.10
2018-01-24T06:37:30.820Z,87.40
2018-01-24T06:39:58.780Z,87.40
2018-01-24T06:42:26.639Z,87.60
2018-01-24T06:44:55.043Z,87.60
2018-01-24T06:47:22.900Z,87.50
2018-01-24T06:49:50.740Z,87.40
2018-01-24T06:52:18.580Z,87.50
2018-01-24T06:54:46.460Z,86.30
2018-01-24T06:57:14.301Z,85.30
2018-01-24T06:59:42.461Z,84.50
2018-01-24T07:02:12.319Z,84.20
2018-01-24T07:04:41.941Z,84.70
2018-01-24T07:07:10.139Z,84.90
2018-01-24T07:09:37.984Z,84.90
2018-01-24T07:12:17.605Z,85.40
2018-01-24T07:14:46.463Z,84.70
2018-01-24T07:17:14.305Z,84.70
2018-01-24T07:19:42.242Z,84.20
2018-01-24T07:22:10.186Z,84.00
2018-01-24T07:24:38.044Z,83.50
2018-01-24T07:27:06.147Z,83.30
2018-01-24T07:29:34.470Z,82.60
2018-01-24T07:32:02.606Z,81.60
2018-01-24T07:34:30.689Z,81.10
2018-01-24T07:36:58.779Z,80.90
2018-01-24T07:39:26.798Z,80.40
2018-01-24T07:41:54.885Z,80.10
2018-01-24T07:44:22.678Z,79.90
2018-01-24T07:46:50.546Z,79.50
2018-01-24T07:49:18.294Z,78.80
2018-01-24T07:51:46.087Z,78.30
2018-01-24T07:54:14.067Z,77.30
2018-01-24T07:56:42.900Z,77.30
2018-01-24T07:59:10.821Z,78.00
2018-01-24T08:01:38.600Z,78.30
2018-01-24T08:04:06.541Z,78.70
2018-01-24T08:06:34.327Z,78.40
2018-01-24T08:09:02.941Z,76.70
2018-01-24T08:11:30.700Z,76.70
2018-01-24T08:13:58.460Z,75.80
2018-01-24T08:16:26.301Z,75.00
2018-01-24T08:18:54.160Z,75.20
2018-01-24T08:21:21.941Z,73.90
2018-01-24T08:23:50.541Z,72.20
2018-01-24T08:26:20.241Z,72.30
2018-01-24T08:28:49.240Z,70.10
2018-01-24T08:31:17.120Z,70.50
2018-01-24T08:33:45.100Z,69.40
2018-01-24T08:36:12.961Z,69.20
2018-01-24T08:38:41.024Z,69.00
2018-01-24T08:41:08.762Z,67.70
2018-01-24T08:43:37.065Z,66.00
2018-01-24T08:46:04.500Z,67.00
2018-01-24T08:48:32.606Z,67.10
2018-01-24T08:51:00.501Z,67.60
2018-01-24T08:53:28.320Z,68.30
2018-01-24T08:55:56.499Z,68.00
2018-01-24T08:58:24.739Z,68.80
2018-01-24T09:00:52.539Z,69.70
2018-01-24T09:03:20.479Z,70.30
2018-01-24T09:05:48.420Z,70.40
2018-01-24T09:08:16.260Z,70.10
2018-01-24T09:10:44.002Z,69.80
2018-01-24T09:13:12.059Z,71.30
2018-01-24T09:15:40.859Z,72.30
2018-01-24T09:18:08.621Z,72.30
2018-01-24T09:20:36.779Z,72.50
2018-01-24T09:23:05.100Z,72.70
2018-01-24T09:25:33.019Z,72.80
2018-01-24T09:28:00.980Z,72.30
2018-01-24T09:30:28.859Z,72.40
2018-01-24T09:32:57.180Z,72.70
2018-01-24T09:35:24.919Z,72.60
2018-01-24T09:37:52.720Z,73.20
2018-01-24T09:40:20.638Z,73.90
2018-01-24T09:42:48.379Z,74.30
2018-01-24T09:45:16.482Z,72.90
2018-01-24T09:47:44.379Z,71.60
2018-01-24T09:50:13.060Z,70.90
2018-01-24T09:52:41.019Z,70.80
2018-01-24T09:55:09.178Z,70.40
2018-01-24T09:57:37.223Z,70.70
2018-01-24T10:00:05.139Z,71.00
2018-01-24T10:02:33.143Z,70.70
2018-01-24T10:05:01.082Z,70.50
2018-01-24T10:07:30.005Z,70.60
2018-01-24T10:09:57.803Z,69.70
2018-01-24T10:12:26.189Z,68.80
2018-01-24T10:14:54.143Z,69.20
2018-01-24T10:17:22.251Z,71.20
2018-01-24T10:19:50.088Z,69.50
2018-01-24T10:22:18.062Z,69.50
2018-01-24T10:24:45.842Z,69.60
2018-01-24T10:27:13.782Z,69.00
2018-01-24T10:29:41.662Z,68.20
2018-01-24T10:32:09.762Z,64.90
2018-01-24T10:34:37.702Z,66.20
2018-01-24T10:37:05.571Z,67.50
2018-01-24T10:39:33.438Z,67.70
2018-01-24T10:42:01.461Z,67.30
2018-01-24T10:44:29.319Z,67.80
2018-01-24T10:46:57.340Z,66.90
2018-01-24T10:49:25.300Z,64.00
2018-01-24T10:51:53.661Z,64.90
2018-01-24T10:54:21.818Z,65.20
2018-01-24T10:56:50.579Z,63.50
2018-01-24T10:59:18.358Z,63.60
2018-01-24T11:01:46.204Z,63.20
2018-01-24T11:04:14.123Z,65.20
2018-01-24T11:06:41.991Z,67.00
2018-01-24T11:09:10.142Z,66.30
2018-01-24T11:11:38.003Z,64.30
2018-01-24T11:14:06.027Z,64.20
2018-01-24T11:16:33.983Z,64.00
2018-01-24T11:19:02.091Z,63.00
2018-01-24T11:21:31.163Z,59.80
2018-01-24T11:23:58.984Z,59.80
2018-01-24T11:26:26.864Z,60.00
2018-01-24T11:28:54.742Z,59.80
2018-01-24T11:31:22.683Z,59.40
2018-01-24T11:33:50.788Z,59.40
2018-01-24T11:36:18.842Z,59.10
2018-01-24T11:38:46.643Z,59.30
2018-01-24T11:41:14.882Z,59.90
2018-01-24T11:46:14.723Z,58.60
2018-01-24T11:48:42.682Z,59.60
2018-01-24T11:51:10.542Z,58.60
2018-01-24T11:53:38.582Z,58.00
2018-01-24T11:56:07.222Z,58.30
2018-01-24T11:58:35.942Z,57.30
2018-01-24T12:01:03.827Z,57.30
2018-01-24T12:03:31.623Z,57.80
2018-01-24T12:05:59.342Z,58.10
2018-01-24T12:08:27.803Z,57.60
2018-01-24T12:10:55.704Z,57.50
2018-01-24T12:13:24.361Z,57.50
2018-01-24T12:15:52.942Z,57.50
2018-01-24T12:18:20.721Z,57.40
2018-01-24T12:20:48.641Z,56.80
2018-01-24T12:23:16.601Z,56.70
2018-01-24T12:25:44.447Z,56.40
2018-01-24T12:28:12.362Z,57.40
2018-01-24T12:30:40.140Z,57.20
2018-01-24T12:33:08.121Z,57.20
2018-01-24T12:35:36.000Z,57.50
2018-01-24T12:38:03.942Z,57.20
2018-01-24T12:40:31.720Z,57.20
2018-01-24T12:42:59.600Z,58.50
2018-01-24T12:45:28.322Z,57.70
2018-01-24T12:47:56.222Z,57.70
2018-01-24T12:50:24.438Z,57.20
2018-01-24T12:52:52.338Z,56.30
2018-01-24T12:55:20.379Z,56.40
2018-01-24T12:57:49.104Z,56.20
2018-01-24T13:00:17.058Z,56.20
2018-01-24T13:02:45.100Z,55.80
2018-01-24T13:05:13.118Z,56.20
2018-01-24T13:07:40.960Z,55.50
2018-01-24T13:10:09.625Z,55.40
2018-01-24T13:12:37.700Z,55.70
2018-01-24T13:15:05.581Z,55.80
2018-01-24T13:17:33.479Z,55.20
2018-01-24T13:20:01.240Z,54.60
2018-01-24T13:22:29.192Z,54.10
2018-01-24T13:24:57.101Z,54.70
2018-01-24T13:27:25.122Z,54.40
2018-01-24T13:29:52.843Z,54.00
2018-01-24T13:32:20.664Z,53.10
2018-01-24T13:34:48.643Z,53.70
2018-01-24T13:37:16.915Z,54.10
2018-01-24T13:39:44.901Z,54.40
2018-01-24T13:42:13.501Z,54.00
2018-01-24T13:44:41.542Z,53.50
2018-01-24T13:47:09.729Z,52.90
2018-01-24T13:49:37.581Z,52.80
2018-01-24T13:52:05.441Z,52.60
2018-01-24T13:54:33.301Z,53.00
2018-01-24T13:57:01.922Z,52.70
2018-01-24T13:59:29.821Z,52.70
2018-01-24T14:01:57.700Z,52.80
2018-01-24T14:04:25.641Z,52.50
2018-01-24T14:06:54.242Z,52.70
2018-01-24T14:09:22.084Z,52.70
2018-01-24T14:11:49.960Z,51.80
2018-01-24T14:14:17.740Z,52.10
2018-01-24T14:16:45.820Z,52.70
2018-01-24T14:19:13.702Z,52.70
2018-01-24T14:21:41.561Z,52.80
2018-01-24T14:24:09.581Z,54.00
2018-01-24T14:26:37.484Z,53.80
2018-01-24T14:29:05.340Z,54.40
2018-01-24T14:31:33.520Z,54.10
2018-01-24T14:34:01.341Z,54.40
2018-01-24T14:36:29.259Z,54.80
2018-01-24T14:38:57.159Z,54.80
2018-01-24T14:41:25.819Z,55.70
2018-01-24T14:43:53.779Z,55.70
2018-01-24T14:46:21.640Z,55.40
2018-01-24T14:48:49.481Z,56.30
2018-01-24T14:51:17.301Z,56.30
2018-01-24T14:53:45.619Z,56.40
2018-01-24T14:56:13.500Z,55.60
2018-01-24T14:58:41.381Z,56.10
2018-01-24T15:01:09.181Z,56.40
2018-01-24T15:03:38.622Z,55.90
2018-01-24T15:06:06.579Z,55.30
2018-01-24T15:08:34.620Z,57.20
2018-01-24T15:11:02.720Z,54.80
2018-01-24T15:13:30.521Z,55.10
2018-01-24T15:15:58.460Z,57.60
2018-01-24T15:18:27.098Z,58.30
2018-01-24T15:20:55.739Z,57.80
2018-01-24T15:23:23.600Z,58.00
2018-01-24T15:25:51.519Z,58.10
2018-01-24T15:28:20.579Z,57.40
2018-01-24T15:30:48.901Z,57.50
2018-01-24T15:33:16.821Z,57.20
2018-01-24T15:35:45.000Z,57.30
2018-01-24T15:38:12.979Z,57.20
2018-01-24T15:40:41.020Z,57.50
2018-01-24T15:43:09.119Z,57.60
2018-01-24T15:45:36.999Z,57.70
2018-01-24T15:48:04.859Z,57.90
2018-01-24T15:50:32.860Z,57.90
2018-01-24T15:53:00.640Z,57.90
2018-01-24T15:55:28.700Z,58.70
2018-01-24T15:57:56.902Z,59.20
2018-01-24T16:00:24.751Z,59.80
2018-01-24T16:02:52.605Z,60.30
2018-01-24T16:05:20.385Z,61.50
2018-01-24T16:07:48.266Z,61.90
2018-01-24T16:10:16.370Z,62.60
2018-01-24T16:12:44.604Z,62.30
2018-01-24T16:15:12.465Z,62.60
2018-01-24T16:17:40.224Z,62.60
2018-01-24T16:20:08.308Z,62.70
2018-01-24T16:22:36.325Z,62.60
2018-01-24T16:25:04.043Z,62.90
2018-01-24T16:27:31.945Z,63.40
2018-01-24T16:29:59.726Z,63.60
2018-01-24T16:32:28.484Z,63.30
2018-01-24T16:34:56.427Z,63.30
2018-01-24T16:37:24.425Z,63.30
2018-01-24T16:39:52.340Z,63.60
2018-01-24T16:42:20.220Z,64.00
2018-01-24T16:44:48.160Z,64.20
2018-01-24T16:47:15.939Z,64.30
2018-01-24T16:49:43.860Z,63.90
2018-01-24T16:52:11.659Z,64.80
2018-01-24T16:54:40.440Z,63.60
2018-01-24T16:57:08.361Z,63.60
2018-01-24T16:59:36.280Z,64.70
2018-01-24T17:02:04.320Z,64.20
2018-01-24T17:04:32.160Z,65.70
2018-01-24T17:06:59.999Z,65.10
2018-01-24T17:09:27.760Z,65.60
2018-01-24T17:11:55.659Z,65.10
2018-01-24T17:14:23.520Z,65.30
2018-01-24T17:16:51.740Z,65.10
2018-01-24T17:19:19.626Z,64.90
2018-01-24T17:21:47.520Z,64.90
2018-01-24T17:24:15.741Z,64.90
2018-01-24T17:26:43.665Z,65.20
2018-01-24T17:29:12.480Z,65.40
2018-01-24T17:31:40.321Z,65.40
2018-01-24T17:34:08.240Z,66.20
2018-01-24T17:36:36.081Z,66.90
2018-01-24T17:39:04.281Z,67.70
2018-01-24T17:41:32.300Z,67.50
2018-01-24T17:44:00.168Z,68.20
2018-01-24T17:46:28.128Z,68.40
2018-01-24T17:48:56.107Z,68.60
2018-01-24T17:51:24.567Z,68.80
2018-01-24T17:53:52.720Z,68.70
2018-01-24T17:56:20.464Z,68.70
2018-01-24T17:58:48.784Z,68.40
2018-01-24T18:01:16.727Z,68.50
2018-01-24T18:03:44.580Z,68.30
2018-01-24T18:06:12.540Z,68.20
2018-01-24T18:08:40.499Z,68.30
2018-01-24T18:11:08.521Z,67.60
2018-01-24T18:13:36.499Z,67.40
2018-01-24T18:16:04.400Z,67.60
2018-01-24T18:18:32.288Z,67.90
2018-01-24T18:21:00.140Z,68.60
2018-01-24T18:23:27.982Z,68.70
2018-01-24T18:25:56.020Z,68.30
2018-01-24T18:28:24.059Z,68.60
2018-01-24T18:30:51.999Z,69.00
2018-01-24T18:33:19.901Z,69.00
2018-01-24T18:35:47.819Z,70.00
2018-01-24T18:38:15.761Z,70.80
2018-01-24T18:40:43.901Z,70.20
2018-01-24T18:43:12.062Z,70.30
2018-01-24T18:45:39.900Z,69.50
2018-01-24T18:48:07.780Z,67.00
2018-01-24T18:50:35.520Z,64.90
2018-01-24T18:53:03.340Z,66.60
2018-01-24T18:55:31.179Z,70.10
2018-01-24T18:57:58.959Z,70.00
2018-01-24T19:00:26.898Z,67.40
2018-01-24T19:02:54.699Z,68.00
2018-01-24T19:05:22.934Z,68.70
2018-01-24T19:07:50.701Z,71.60
2018-01-24T19:10:20.323Z,73.20
2018-01-24T19:12:48.721Z,73.80
2018-01-24T19:15:16.543Z,73.00
2018-01-24T19:17:44.341Z,74.20
2018-01-24T19:20:12.332Z,74.30
2018-01-24T19:22:40.121Z,73.00
2018-01-24T19:25:07.926Z,73.50
2018-01-24T19:27:36.479Z,72.90
2018-01-24T19:30:04.320Z,72.80
2018-01-24T19:32:32.060Z,72.20
2018-01-24T19:34:59.945Z,72.80
2018-01-24T19:37:27.860Z,74.20
2018-01-24T19:39:55.682Z,73.50
2018-01-24T19:42:23.542Z,73.30
2018-01-24T19:44:51.361Z,72.80
2018-01-24T19:47:19.268Z,73.50
2018-01-24T19:49:47.085Z,72.40
2018-01-24T19:52:15.681Z,72.10
2018-01-24T19:54:43.551Z,72.10
2018-01-24T19:57:11.441Z,72.20
2018-01-24T19:59:39.213Z,73.00
2018-01-24T20:02:07.046Z,74.20
2018-01-24T20:04:34.865Z,74.50
2018-01-24T20:07:03.121Z,72.60
2018-01-24T20:09:30.870Z,71.60
2018-01-24T20:12:00.286Z,71.90
2018-01-24T20:14:28.063Z,71.90
2018-01-24T20:16:55.934Z,71.90
2018-01-24T20:19:23.784Z,72.40
2018-01-24T20:21:51.507Z,72.80
2018-01-24T20:24:19.363Z,74.20
2018-01-24T20:26:47.199Z,74.60
2018-01-24T20:29:15.024Z,74.10
2018-01-24T20:31:42.868Z,74.30
2018-01-24T20:34:10.641Z,75.30
2018-01-24T20:36:38.479Z,75.90
2018-01-24T20:39:06.983Z,75.00
2018-01-24T20:41:34.839Z,75.00
2018-01-24T20:44:02.624Z,75.70
2018-01-24T20:46:30.442Z,76.00
2018-01-24T20:48:58.287Z,75.20
2018-01-24T20:51:26.083Z,75.60
2018-01-24T20:53:53.902Z,74.80
2018-01-24T20:56:21.782Z,74.40
2018-01-24T20:58:50.524Z,76.50
2018-01-24T21:01:18.472Z,75.80
2018-01-24T21:03:46.225Z,75.50
2018-01-24T21:06:14.001Z,75.20
2018-01-24T21:08:41.759Z,74.70
2018-01-24T21:11:09.531Z,70.30
2018-01-24T21:13:37.404Z,70.00
2018-01-24T21:16:05.183Z,74.40
2018-01-24T21:18:33.049Z,73.30
2018-01-24T21:21:01.185Z,72.10
2018-01-24T21:23:29.078Z,72.50
2018-01-24T21:25:56.909Z,71.70
2018-01-24T21:28:36.608Z,73.40
2018-01-24T21:31:16.119Z,73.60
2018-01-24T21:33:52.746Z,75.00
2018-01-24T21:36:32.344Z,77.00
2018-01-24T21:39:00.025Z,74.70
2018-01-24T21:41:27.746Z,75.70
2018-01-24T21:43:55.488Z,77.70
2018-01-24T21:46:23.285Z,78.00
2018-01-24T21:48:51.122Z,77.20
2018-01-24T21:51:19.100Z,76.80
2018-01-24T21:53:46.961Z,78.00
2018-01-24T21:56:14.800Z,79.00
2018-01-24T21:58:42.640Z,78.20
2018-01-24T22:01:10.541Z,77.60
2018-01-24T22:03:38.380Z,77.20
2018-01-24T22:06:06.181Z,74.80
2018-01-24T22:08:34.002Z,75.20
2018-01-24T22:11:02.001Z,76.70
2018-01-24T22:13:29.958Z,78.40
2018-01-24T22:15:57.740Z,78.50
2018-01-24T22:18:25.647Z,78.70
2018-01-24T22:20:53.818Z,79.10
2018-01-24T22:23:22.619Z,73.80
2018-01-24T22:25:50.582Z,73.80
2018-01-24T22:28:18.340Z,77.60
2018-01-24T22:30:46.219Z,77.00
2018-01-24T22:33:14.238Z,76.80
2018-01-24T22:35:42.420Z,74.60
2018-01-24T22:38:11.079Z,79.60
2018-01-24T22:40:39.058Z,79.60
2018-01-24T22:43:06.981Z,80.50
2018-01-24T22:45:35.019Z,80.00
2018-01-24T22:48:02.898Z,79.80
2018-01-24T22:50:30.721Z,79.60
2018-01-24T22:52:58.718Z,79.30
2018-01-24T22:55:26.638Z,79.90
2018-01-24T22:57:54.578Z,80.20
2018-01-24T23:00:26.261Z,77.10
2018-01-24T23:02:54.164Z,74.30
2018-01-24T23:05:21.944Z,76.00
2018-01-24T23:07:51.105Z,77.20
2018-01-24T23:10:19.306Z,77.20
2018-01-24T23:12:47.046Z,74.90
2018-01-24T23:15:14.884Z,77.80
2018-01-24T23:17:43.245Z,81.10
2018-01-24T23:20:11.024Z,78.90
2018-01-24T23:22:38.904Z,74.80
2018-01-24T23:25:06.940Z,77.60
2018-01-24T23:27:34.859Z,79.50
2018-01-24T23:30:02.759Z,82.60
2018-01-24T23:32:30.539Z,83.20
2018-01-24T23:34:58.460Z,83.30
2018-01-24T23:37:26.219Z,82.80
2018-01-24T23:39:54.139Z,82.30
2018-01-24T23:42:22.419Z,81.40
2018-01-24T23:44:50.359Z,79.50
2018-01-24T23:47:18.262Z,79.40
2018-01-24T23:49:46.159Z,79.60
2018-01-24T23:52:15.080Z,80.60
2018-01-24T23:54:42.879Z,81.90
2018-01-24T23:57:10.919Z,80.10
2018-01-24T23:59:38.979Z,80.60
